createdAt,value
2023-03-22T00:00:19.647Z,96496.19
2023-03-22T00:02:47.258Z,96496.19
2023-03-22T00:05:16.306Z,96494.59
2023-03-22T00:07:43.896Z,96495.75
2023-03-22T00:10:12.033Z,96489.53
2023-03-22T00:12:39.519Z,96487.16
2023-03-22T00:15:08.152Z,96484.34
2023-03-22T00:17:36.629Z,96488.97
2023-03-22T00:20:06.292Z,96487.72
2023-03-22T00:22:35.152Z,96491.16
2023-03-22T00:25:02.668Z,96490.97
2023-03-22T00:27:30.454Z,96493.78
2023-03-22T00:29:57.997Z,96499.03
2023-03-22T00:32:25.713Z,96491.41
2023-03-22T00:34:53.282Z,96490.97
2023-03-22T00:37:20.898Z,96488.13
2023-03-22T00:39:49.829Z,96506.19
2023-03-22T00:42:17.366Z,96498.28
2023-03-22T00:44:44.914Z,96495.66
2023-03-22T00:47:12.481Z,96487.66
2023-03-22T00:49:40.057Z,96481.16
2023-03-22T00:52:07.603Z,96480.34
2023-03-22T00:54:35.143Z,96484.72
2023-03-22T00:57:04.169Z,96487.47
2023-03-22T00:59:31.799Z,96481.41
2023-03-22T01:01:59.310Z,96478.34
2023-03-22T01:04:26.965Z,96468.09
2023-03-22T01:06:59.272Z,96468.69
2023-03-22T01:09:28.303Z,96475.50
2023-03-22T01:11:56.290Z,96466.63
2023-03-22T01:14:26.144Z,96474.41
2023-03-22T01:16:54.905Z,96466.69
2023-03-22T01:19:22.499Z,96465.22
2023-03-22T01:21:50.208Z,96462.13
2023-03-22T01:24:17.779Z,96469.28
2023-03-22T01:26:45.390Z,96467.84
2023-03-22T01:29:13.109Z,96475.84
2023-03-22T01:31:42.285Z,96479.47
2023-03-22T01:34:10.253Z,96464.00
2023-03-22T01:36:38.096Z,96471.59
2023-03-22T01:39:05.824Z,96467.09
2023-03-22T01:41:35.050Z,96466.06
2023-03-22T01:44:13.940Z,96461.75
2023-03-22T01:46:44.632Z,96457.84
2023-03-22T01:49:16.059Z,96456.34
2023-03-22T01:51:46.055Z,96447.81
2023-03-22T01:54:17.935Z,96441.53
2023-03-22T01:56:45.962Z,96448.44
2023-03-22T01:59:15.976Z,96452.78
2023-03-22T02:01:47.087Z,96447.28
2023-03-22T02:04:20.001Z,96447.66
2023-03-22T02:06:48.453Z,96448.22
2023-03-22T02:09:21.967Z,96442.94
2023-03-22T02:11:59.303Z,96435.19
2023-03-22T02:14:39.365Z,96433.13
2023-03-22T02:17:21.089Z,96437.88
2023-03-22T02:20:16.439Z,96438.25
2023-03-22T02:23:02.287Z,96436.03
2023-03-22T02:26:03.394Z,96435.75
2023-03-22T02:28:42.149Z,96432.88
2023-03-22T02:31:38.278Z,96426.25
2023-03-22T03:13:39.230Z,96417.13
2023-03-22T03:16:08.372Z,96409.84
2023-03-22T03:18:45.808Z,96419.59
2023-03-22T03:21:30.178Z,96419.97
2023-03-22T03:24:08.674Z,96414.66
2023-03-22T03:26:44.753Z,96416.63
2023-03-22T03:29:18.993Z,96418.44
2023-03-22T03:31:51.429Z,96419.88
2023-03-22T03:34:23.209Z,96424.19
2023-03-22T03:36:57.699Z,96425.91
2023-03-22T03:39:27.661Z,96420.72
2023-03-22T03:41:56.757Z,96417.13
2023-03-22T03:44:25.844Z,96413.06
2023-03-22T03:46:54.847Z,96419.59
2023-03-22T03:49:24.240Z,96418.72
2023-03-22T03:51:54.454Z,96416.63
2023-03-22T03:54:23.019Z,96415.38
2023-03-22T03:56:50.956Z,96424.16
2023-03-22T03:59:20.873Z,96418.59
2023-03-22T04:01:52.465Z,96422.47
2023-03-22T04:04:26.476Z,96419.50
2023-03-22T04:06:56.800Z,96425.34
2023-03-22T04:09:25.200Z,96427.16
2023-03-22T04:11:52.710Z,96426.34
2023-03-22T04:14:20.325Z,96432.72
2023-03-22T04:16:49.210Z,96433.41
2023-03-22T04:19:16.906Z,96427.75
2023-03-22T04:21:44.579Z,96425.66
2023-03-22T04:24:12.740Z,96426.81
2023-03-22T04:26:40.761Z,96432.84
2023-03-22T04:29:08.546Z,96426.47
2023-03-22T04:31:36.878Z,96425.78
2023-03-22T04:34:06.413Z,96427.03
2023-03-22T04:36:36.385Z,96424.44
2023-03-22T04:39:05.967Z,96425.41
2023-03-22T04:41:33.554Z,96415.84
2023-03-22T04:44:03.206Z,96425.88
2023-03-22T04:46:31.397Z,96414.19
2023-03-22T04:48:59.225Z,96422.66
2023-03-22T04:51:28.786Z,96419.34
2023-03-22T04:53:56.335Z,96419.34
2023-03-22T04:56:23.880Z,96418.34
2023-03-22T04:58:51.547Z,96416.38
2023-03-22T05:01:19.477Z,96423.38
2023-03-22T05:03:47.452Z,96415.13
2023-03-22T05:06:16.012Z,96419.06
2023-03-22T05:08:45.050Z,96423.53
2023-03-22T05:11:16.355Z,96430.41
2023-03-22T05:13:44.474Z,96434.34
2023-03-22T05:16:12.525Z,96430.28
2023-03-22T05:18:42.457Z,96429.00
2023-03-22T05:21:13.737Z,96431.34
2023-03-22T05:23:41.967Z,96416.63
2023-03-22T05:26:16.114Z,96417.94
2023-03-22T05:28:44.707Z,96424.63
2023-03-22T05:31:14.657Z,96423.72
2023-03-22T05:33:42.476Z,96419.97
2023-03-22T05:36:11.675Z,96419.50
2023-03-22T05:38:39.570Z,96418.69
2023-03-22T05:41:07.637Z,96414.00
2023-03-22T05:43:36.499Z,96406.91
2023-03-22T05:46:06.725Z,96410.84
2023-03-22T05:48:34.424Z,96409.03
2023-03-22T05:51:03.406Z,96405.44
2023-03-22T05:53:31.859Z,96404.94
2023-03-22T05:56:01.899Z,96400.84
2023-03-22T05:58:30.640Z,96404.72
2023-03-22T06:01:05.948Z,96394.31
2023-03-22T06:03:33.533Z,96396.41
2023-03-22T06:06:01.117Z,96396.56
2023-03-22T06:08:28.671Z,96392.47
2023-03-22T06:10:56.410Z,96392.00
2023-03-22T06:13:23.933Z,96391.84
2023-03-22T06:15:51.747Z,96388.72
2023-03-22T06:18:20.769Z,96388.53
2023-03-22T06:20:48.272Z,96395.19
2023-03-22T06:23:15.812Z,96394.81
2023-03-22T06:25:43.550Z,96386.22
2023-03-22T06:28:11.080Z,96394.47
2023-03-22T06:30:38.939Z,96389.91
2023-03-22T06:33:06.955Z,96393.78
2023-03-22T06:35:36.238Z,96391.47
2023-03-22T06:38:03.897Z,96389.50
2023-03-22T06:40:31.427Z,96382.66
2023-03-22T06:43:01.628Z,96387.53
2023-03-22T06:45:33.454Z,96391.69
2023-03-22T06:48:01.536Z,96387.84
2023-03-22T06:50:29.796Z,96386.25
2023-03-22T06:52:58.686Z,96383.13
2023-03-22T06:55:26.304Z,96387.53
2023-03-22T06:57:53.797Z,96389.50
2023-03-22T07:00:21.593Z,96394.69
2023-03-22T07:02:50.921Z,96388.31
2023-03-22T07:05:20.257Z,96393.09
2023-03-22T07:07:47.833Z,96395.31
2023-03-22T07:10:16.662Z,96397.00
2023-03-22T07:12:44.203Z,96396.59
2023-03-22T07:15:12.423Z,96405.03
2023-03-22T07:17:39.931Z,96407.00
2023-03-22T07:20:08.655Z,96405.50
2023-03-22T07:22:36.226Z,96400.63
2023-03-22T07:25:03.930Z,96393.09
2023-03-22T07:27:32.793Z,96395.81
2023-03-22T07:30:00.416Z,96396.50
2023-03-22T07:32:27.965Z,96400.78
2023-03-22T07:34:55.489Z,96401.84
2023-03-22T07:37:23.203Z,96395.00
2023-03-22T07:39:50.684Z,96397.81
2023-03-22T07:42:18.214Z,96402.84
2023-03-22T07:44:49.750Z,96392.88
2023-03-22T07:47:22.146Z,96393.34
2023-03-22T07:49:54.782Z,96390.19
2023-03-22T07:52:22.326Z,96389.38
2023-03-22T07:54:49.829Z,96390.00
2023-03-22T07:57:17.319Z,96393.44
2023-03-22T07:59:44.809Z,96391.44
2023-03-22T08:02:13.828Z,96394.28
2023-03-22T08:04:41.373Z,96397.66
2023-03-22T08:07:10.104Z,96395.59
2023-03-22T08:09:37.976Z,96401.13
2023-03-22T08:12:06.216Z,96402.66
2023-03-22T08:14:37.087Z,96403.25
2023-03-22T08:17:05.063Z,96400.84
2023-03-22T08:19:34.204Z,96415.03
2023-03-22T08:22:01.906Z,96415.50
2023-03-22T08:24:29.390Z,96419.06
2023-03-22T08:26:57.577Z,96414.16
2023-03-22T08:29:25.217Z,96411.88
2023-03-22T08:31:52.813Z,96410.41
2023-03-22T08:34:20.396Z,96414.75
2023-03-22T08:36:49.249Z,96415.66
2023-03-22T08:39:16.807Z,96414.09
2023-03-22T08:41:44.373Z,96415.66
2023-03-22T08:44:11.964Z,96412.72
2023-03-22T08:46:40.067Z,96419.47
2023-03-22T08:49:10.377Z,96421.09
2023-03-22T08:51:37.931Z,96422.44
2023-03-22T08:54:08.088Z,96413.03
2023-03-22T08:56:38.161Z,96410.22
2023-03-22T08:59:06.564Z,96398.56
2023-03-22T09:01:34.165Z,96409.03
2023-03-22T09:04:02.110Z,96409.63
2023-03-22T09:06:29.709Z,96404.94
2023-03-22T09:08:57.642Z,96409.75
2023-03-22T09:11:26.569Z,96401.13
2023-03-22T09:13:54.060Z,96407.19
2023-03-22T09:16:21.605Z,96401.44
2023-03-22T09:18:49.152Z,96408.91
2023-03-22T09:21:16.736Z,96403.63
2023-03-22T09:23:47.835Z,96405.97
2023-03-22T09:26:15.791Z,96406.72
2023-03-22T09:28:46.820Z,96397.53
2023-03-22T09:31:14.544Z,96392.75
2023-03-22T09:33:42.427Z,96388.94
2023-03-22T09:36:11.904Z,96380.31
2023-03-22T09:38:39.514Z,96379.19
2023-03-22T09:41:12.466Z,96391.81
2023-03-22T09:43:43.448Z,96379.66
2023-03-22T09:46:16.818Z,96367.19
2023-03-22T09:48:48.346Z,96374.84
2023-03-22T09:51:21.618Z,96378.75
2023-03-22T09:53:49.158Z,96376.94
2023-03-22T09:56:23.067Z,96381.25
2023-03-22T09:58:57.252Z,96368.38
2023-03-22T10:01:35.098Z,96362.09
2023-03-22T10:04:27.182Z,96367.41
2023-03-22T10:07:06.818Z,96360.47
2023-03-22T10:09:40.289Z,96361.47
2023-03-22T10:12:16.461Z,96352.81
2023-03-22T10:14:50.742Z,96355.91
2023-03-22T10:17:24.097Z,96343.19
2023-03-22T10:19:56.367Z,96346.59
2023-03-22T10:22:29.945Z,96336.56
2023-03-22T10:24:58.935Z,96341.78
2023-03-22T10:27:27.630Z,96333.75
2023-03-22T10:29:59.293Z,96336.53
2023-03-22T10:32:36.322Z,96331.09
2023-03-22T10:35:07.110Z,96331.78
2023-03-22T10:37:37.609Z,96334.53
2023-03-22T10:40:07.941Z,96337.38
2023-03-22T10:42:37.767Z,96336.56
2023-03-22T10:45:09.398Z,96326.06
2023-03-22T10:47:42.751Z,96315.34
2023-03-22T10:50:16.710Z,96318.97
2023-03-22T10:52:50.760Z,96309.25
2023-03-22T10:55:18.605Z,96314.13
2023-03-22T10:58:09.540Z,96315.19
2023-03-22T11:00:40.599Z,96310.41
2023-03-22T11:03:27.602Z,96299.06
2023-03-22T11:06:08.036Z,96306.94
2023-03-22T11:08:45.028Z,96296.31
2023-03-22T11:11:24.204Z,96294.19
2023-03-22T11:13:54.945Z,96292.88
2023-03-22T11:16:23.903Z,96282.94
2023-03-22T11:18:52.898Z,96270.03
2023-03-22T11:21:24.032Z,96271.66
2023-03-22T11:23:57.423Z,96271.38
2023-03-22T11:26:31.958Z,96267.44
2023-03-22T11:29:11.642Z,96263.47
2023-03-22T11:31:56.324Z,96267.72
2023-03-22T11:34:28.063Z,96266.84
2023-03-22T11:36:57.532Z,96262.31
2023-03-22T11:39:28.324Z,96256.47
2023-03-22T11:42:01.129Z,96263.50
2023-03-22T11:44:33.086Z,96257.59
2023-03-22T11:47:01.852Z,96261.94
2023-03-22T11:49:39.252Z,96262.16
2023-03-22T11:52:12.596Z,96268.03
2023-03-22T11:54:42.360Z,96253.56
2023-03-22T11:57:16.987Z,96254.75
2023-03-22T11:59:51.077Z,96247.63
2023-03-22T12:02:24.667Z,96247.34
2023-03-22T12:05:01.698Z,96248.06
2023-03-22T12:07:33.739Z,96241.81
2023-03-22T12:10:06.112Z,96245.91
2023-03-22T12:12:37.817Z,96241.69
2023-03-22T12:15:13.575Z,96232.34
2023-03-22T12:17:46.319Z,96228.34
2023-03-22T12:20:23.106Z,96225.97
2023-03-22T12:22:54.785Z,96222.00
2023-03-22T12:25:26.542Z,96221.66
2023-03-22T12:27:57.089Z,96212.84
2023-03-22T12:30:26.826Z,96216.97
2023-03-22T12:33:01.537Z,96217.31
2023-03-22T12:35:32.803Z,96218.69
2023-03-22T12:38:07.735Z,96217.66
2023-03-22T12:40:39.766Z,96221.69
2023-03-22T12:43:15.376Z,96220.09
2023-03-22T12:45:49.064Z,96208.44
2023-03-22T12:48:20.704Z,96211.84
2023-03-22T12:50:53.724Z,96209.97
2023-03-22T12:53:23.753Z,96196.72
2023-03-22T12:55:52.183Z,96201.53
2023-03-22T12:58:22.483Z,96202.56
2023-03-22T13:00:55.908Z,96199.63
2023-03-22T13:03:28.811Z,96197.19
2023-03-22T13:06:05.361Z,96188.69
2023-03-22T13:09:15.590Z,96184.19
2023-03-22T13:11:44.812Z,96185.50
2023-03-22T13:14:34.834Z,96182.59
2023-03-22T13:17:02.581Z,96187.13
2023-03-22T13:19:34.600Z,96183.44
2023-03-22T13:22:22.220Z,96173.34
2023-03-22T13:25:07.196Z,96176.53
2023-03-22T13:27:39.901Z,96173.84
2023-03-22T13:30:17.818Z,96173.81
2023-03-22T13:32:51.643Z,96174.34
2023-03-22T13:35:24.553Z,96175.69
2023-03-22T13:37:54.193Z,96158.44
2023-03-22T13:40:33.985Z,96157.38
2023-03-22T13:43:25.292Z,96158.97
2023-03-22T13:46:12.803Z,96154.44
2023-03-22T13:48:56.035Z,96148.09
2023-03-22T13:51:31.095Z,96140.38
2023-03-22T13:54:07.894Z,96133.72
2023-03-22T13:56:53.311Z,96126.31
2023-03-22T13:59:26.923Z,96127.34
2023-03-22T14:01:58.347Z,96128.06
2023-03-22T14:04:34.900Z,96126.47
2023-03-22T14:07:08.128Z,96117.16
2023-03-22T14:09:44.462Z,96118.72
2023-03-22T14:12:19.063Z,96121.63
2023-03-22T14:14:49.646Z,96109.44
2023-03-22T14:17:28.064Z,96117.94
2023-03-22T14:19:58.214Z,96113.69
